Chrysanthemum — C6XO4 — position and weather

sailwx.info

Track history (hours):
 
Tides and Currents Weather Stations Pressure Air Temp Water Temp Dewpoint Dewpoint Depression Visibility Wind Speed Wind Dir Waves Ship Positions

Chrysanthemum

Last reported at 2015-May-26 19:18 UTC. Time now 2015-May-27 01:53 UTC.
Position N 34°02' E 130°42'.

Length 244 m; draft 8.5 m.

Type: Tanker. MMSI: 311015300.

Date/timePositionNaut miles runAvg speedWind from/ knotsBaromVisibWave heightAir tempDewpointWater temp
2015-May-26 19:18N 34°02' E 130°42'911.4
2015-May-26 18:29N 34°02' E 130°30'1111.0
2015-May-26 17:30N 34°02' E 130°17'7 5.1
2015-May-26 16:11N 34°02' E 130°09'2 2.8
2015-May-26 15:30N 34°01' E 130°11'21611.2
2015-May-25 20:18N 34°04' E 125°51'810.2
2015-May-25 19:33N 34°06' E 125°42'1310.1
2015-May-25 18:18N 34°17' E 125°36'911.3
2015-May-25 17:32N 34°26' E 125°35'1111.6
2015-May-25 16:33N 34°37' E 125°34'1211.7
2015-May-25 15:31N 34°49' E 125°36'1111.7
2015-May-25 14:33N 35°00' E 125°38'1212.0
2015-May-25 13:33N 35°12' E 125°41'1311.9
2015-May-25 12:28N 35°25' E 125°41'1111.7
2015-May-25 11:32N 35°36' E 125°42'1111.6
2015-May-25 10:33N 35°47' E 125°44'1211.5
2015-May-25 09:30N 35°59' E 125°48'1111.5
2015-May-25 08:33N 36°10' E 125°50'1212.0
2015-May-25 07:33N 36°22' E 125°52'1312.6
2015-May-25 06:33N 36°34' E 125°54'1212.6
2015-May-25 05:33N 36°46' E 125°58'1211.7
2015-May-25 04:32N 36°54' E 126°10'11 0.4
2015-May-24 01:27N 36°45' E 125°60'  
2015-May-21 05:10N 22°52' E 119°60'812.4
2015-May-21 04:33N 22°46' E 120°03'1313.1
2015-May-21 03:33N 22°33' E 120°09'10 9.9
2015-May-21 02:33N 22°33' E 120°19'1 0.1
2015-May-20 06:31N 22°33' E 120°20'2 0.2
2015-May-20 00:26N 22°33' E 120°19'3 3.4
2015-May-19 23:34N 22°32' E 120°16'8 8.5
2015-May-19 22:34N 22°26' E 120°10'1211.5
2015-May-19 21:33N 22°16' E 120°03'  
Track history (hours):
 
Tides and Currents Weather Stations Pressure Air Temp Water Temp Dewpoint Dewpoint Depression Visibility Wind Speed Wind Dir Waves Ship Positions

Chrysanthemum

Last reported at 2015-May-26 19:18 UTC. Time now 2015-May-27 01:53 UTC.
Position N 34°02' E 130°42'.

Length 244 m; draft 8.5 m.

Type: Tanker. MMSI: 311015300.

Date/timePositionNaut miles runAvg speedWind from/ knotsBaromVisibWave heightAir tempDewpointWater temp
2015-May-26 19:18N 34°02' E 130°42'911.4
2015-May-26 18:29N 34°02' E 130°30'1111.0
2015-May-26 17:30N 34°02' E 130°17'7 5.1
2015-May-26 16:11N 34°02' E 130°09'2 2.8
2015-May-26 15:30N 34°01' E 130°11'21611.2
2015-May-25 20:18N 34°04' E 125°51'810.2
2015-May-25 19:33N 34°06' E 125°42'1310.1
2015-May-25 18:18N 34°17' E 125°36'911.3
2015-May-25 17:32N 34°26' E 125°35'1111.6
2015-May-25 16:33N 34°37' E 125°34'1211.7
2015-May-25 15:31N 34°49' E 125°36'1111.7
2015-May-25 14:33N 35°00' E 125°38'1212.0
2015-May-25 13:33N 35°12' E 125°41'1311.9
2015-May-25 12:28N 35°25' E 125°41'1111.7
2015-May-25 11:32N 35°36' E 125°42'1111.6
2015-May-25 10:33N 35°47' E 125°44'1211.5
2015-May-25 09:30N 35°59' E 125°48'1111.5
2015-May-25 08:33N 36°10' E 125°50'1212.0
2015-May-25 07:33N 36°22' E 125°52'1312.6
2015-May-25 06:33N 36°34' E 125°54'1212.6
2015-May-25 05:33N 36°46' E 125°58'1211.7
2015-May-25 04:32N 36°54' E 126°10'11 0.4
2015-May-24 01:27N 36°45' E 125°60'  
2015-May-21 05:10N 22°52' E 119°60'812.4
2015-May-21 04:33N 22°46' E 120°03'1313.1
2015-May-21 03:33N 22°33' E 120°09'10 9.9
2015-May-21 02:33N 22°33' E 120°19'1 0.1
2015-May-20 06:31N 22°33' E 120°20'2 0.2
2015-May-20 00:26N 22°33' E 120°19'3 3.4
2015-May-19 23:34N 22°32' E 120°16'8 8.5
2015-May-19 22:34N 22°26' E 120°10'1211.5
2015-May-19 21:33N 22°16' E 120°03'  

Dump ship's entire track history